Time;durP1;ratioP1;P1;durP2;ratioP2;P2;SDS_P1;SDS_P2;PMS_P1;PMS_P2;Temp;Humidity;BMP_temperature;BMP_pressure;BME280_temperature;BME280_humidity;BME280_pressure;Samples;Min_cycle;Max_cycle;Signal;HPM_P1;HPM_P2
2024/02/15 00:00:43;;;;;;;37.05;12.10;;;11.10;99.90;;;;;;4938829;29;20078;-89
2024/02/15 00:03:13;;;;;;;35.15;12.40;;;11.00;99.90;;;;;;4938918;29;20039;-89
2024/02/15 00:05:39;;;;;;;34.60;12.52;;;11.10;99.90;;;;;;4945868;29;20040;-89
2024/02/15 00:08:06;;;;;;;38.80;13.13;;;11.10;99.90;;;;;;4938607;29;20050;-88
2024/02/15 00:10:34;;;;;;;36.35;13.23;;;11.00;99.90;;;;;;4926416;29;20043;-89
2024/02/15 00:13:00;;;;;;;33.55;12.57;;;11.10;99.90;;;;;;4938539;29;20079;-89
2024/02/15 00:15:27;;;;;;;40.22;13.15;;;11.00;99.90;;;;;;4938191;29;20079;-89
2024/02/15 00:17:54;;;;;;;34.20;13.90;;;11.10;99.90;;;;;;4953966;29;20039;-89
2024/02/15 00:20:20;;;;;;;41.92;14.88;;;11.00;99.90;;;;;;4938620;29;20050;-89
2024/02/15 00:22:47;;;;;;;38.22;14.02;;;11.00;99.90;;;;;;4938320;29;20032;-90
2024/02/15 00:25:14;;;;;;;42.42;13.82;;;11.00;99.90;;;;;;4956305;29;20098;-89
2024/02/15 00:27:41;;;;;;;43.40;14.32;;;11.00;99.90;;;;;;4955098;29;20047;-89
2024/02/15 00:30:09;;;;;;;43.30;14.55;;;11.10;99.90;;;;;;4945904;29;20071;-89
2024/02/15 00:32:36;;;;;;;41.58;15.10;;;11.10;99.90;;;;;;4927271;29;20046;-89
2024/02/15 00:35:07;;;;;;;40.63;14.13;;;11.00;99.90;;;;;;4928456;29;20442;-89
2024/02/15 00:37:34;;;;;;;43.70;15.00;;;11.00;99.90;;;;;;4952851;29;20043;-89
2024/02/15 00:40:03;;;;;;;45.85;14.25;;;11.00;99.90;;;;;;4938238;29;20047;-89
2024/02/15 00:42:33;;;;;;;45.40;14.52;;;11.00;99.90;;;;;;4951694;29;20738;-89
2024/02/15 00:45:00;;;;;;;45.40;14.30;;;11.00;99.90;;;;;;4937732;29;20046;-89
2024/02/15 00:47:28;;;;;;;43.97;15.35;;;11.00;99.90;;;;;;4938172;29;20031;-90
2024/02/15 00:49:54;;;;;;;47.22;15.02;;;11.00;99.90;;;;;;4950118;29;20111;-89
2024/02/15 00:52:21;;;;;;;37.30;14.50;;;11.10;99.90;;;;;;4938067;29;20119;-89
2024/02/15 00:54:48;;;;;;;50.80;15.23;;;11.00;99.90;;;;;;4937933;29;20031;-90
2024/02/15 00:57:14;;;;;;;39.92;15.25;;;11.00;99.90;;;;;;4936725;29;20051;-89
2024/02/15 00:59:41;;;;;;;40.05;14.93;;;11.00;99.90;;;;;;4937444;29;20050;-89
2024/02/15 01:02:07;;;;;;;48.00;14.95;;;11.10;99.90;;;;;;4952263;29;20032;-89
2024/02/15 01:04:35;;;;;;;39.63;14.10;;;11.10;99.90;;;;;;4937290;29;20460;-89
2024/02/15 01:07:01;;;;;;;38.33;14.02;;;11.00;99.90;;;;;;4942531;29;20054;-89
2024/02/15 01:09:29;;;;;;;47.30;13.95;;;11.00;99.90;;;;;;4935290;29;20039;-89
2024/02/15 01:11:55;;;;;;;40.17;14.00;;;11.00;99.90;;;;;;4936987;29;20544;-89
2024/02/15 01:14:22;;;;;;;48.28;15.73;;;11.10;99.90;;;;;;4925233;29;20138;-89
2024/02/15 01:16:49;;;;;;;49.67;15.65;;;11.00;99.90;;;;;;4925735;29;20040;-89
2024/02/15 01:19:15;;;;;;;43.20;13.95;;;11.00;99.90;;;;;;4937217;29;20036;-89
2024/02/15 01:21:43;;;;;;;45.63;14.95;;;11.20;99.90;;;;;;4933967;29;20040;-89
2024/02/15 01:24:10;;;;;;;40.55;14.60;;;11.00;99.90;;;;;;4927566;29;20123;-89
2024/02/15 01:26:37;;;;;;;51.42;14.98;;;11.00;99.90;;;;;;4958311;29;20115;-89
2024/02/15 01:29:03;;;;;;;47.28;14.73;;;11.00;99.90;;;;;;4926308;29;20035;-89
2024/02/15 01:31:30;;;;;;;46.47;14.73;;;11.00;99.90;;;;;;4937443;29;20143;-89
2024/02/15 01:33:57;;;;;;;43.80;13.45;;;11.10;99.90;;;;;;4937764;29;20043;-90
2024/02/15 01:36:24;;;;;;;38.10;14.30;;;11.00;99.90;;;;;;4929781;29;20048;-90
2024/02/15 01:38:51;;;;;;;35.50;13.95;;;11.00;99.90;;;;;;4920293;29;20044;-89
2024/02/15 01:41:17;;;;;;;44.85;13.90;;;11.50;99.90;;;;;;4946912;29;20382;-89
2024/02/15 01:43:45;;;;;;;44.40;13.63;;;11.00;99.90;;;;;;4937465;29;20050;-89
2024/02/15 01:46:12;;;;;;;37.53;13.43;;;11.00;99.90;;;;;;4937209;29;20171;-89
2024/02/15 01:48:41;;;;;;;33.88;13.18;;;11.10;99.90;;;;;;4947021;29;20123;-89
2024/02/15 01:51:11;;;;;;;37.20;13.02;;;11.00;99.90;;;;;;4937769;29;20039;-90
2024/02/15 01:53:40;;;;;;;37.33;12.95;;;11.00;99.90;;;;;;4937677;29;20090;-89
2024/02/15 01:56:07;;;;;;;44.10;13.55;;;11.10;99.90;;;;;;4940678;29;20163;-90
2024/02/15 01:58:35;;;;;;;35.08;13.32;;;11.10;99.90;;;;;;4934953;29;20079;-89
2024/02/15 02:01:03;;;;;;;37.20;13.52;;;11.00;99.90;;;;;;4940980;29;20043;-89
2024/02/15 02:03:30;;;;;;;42.50;13.88;;;11.00;99.90;;;;;;4954391;29;20048;-89
2024/02/15 02:05:56;;;;;;;41.58;13.57;;;11.00;99.90;;;;;;4922275;29;20040;-90
2024/02/15 02:08:23;;;;;;;37.75;12.77;;;11.00;99.90;;;;;;4933998;29;20047;-89
2024/02/15 02:10:52;;;;;;;33.08;12.25;;;11.20;99.90;;;;;;4942474;29;20796;-89
2024/02/15 02:13:19;;;;;;;33.90;11.50;;;11.00;99.90;;;;;;4937140;29;20099;-89
2024/02/15 02:15:45;;;;;;;30.20;11.75;;;11.00;99.90;;;;;;4931771;29;20048;-89
2024/02/15 02:18:13;;;;;;;31.42;11.75;;;11.00;99.90;;;;;;4941313;29;20597;-89
2024/02/15 02:20:39;;;;;;;31.52;11.13;;;11.00;99.90;;;;;;4940479;29;20032;-90
2024/02/15 02:23:18;;;;;;;28.38;10.07;;;11.00;99.90;;;;;;4945463;29;20046;-89
2024/02/15 02:25:49;;;;;;;32.92;10.60;;;11.00;99.90;;;;;;4940753;29;20044;-90
2024/02/15 02:28:16;;;;;;;31.58;9.90;;;11.00;99.90;;;;;;4934332;29;20135;-90
2024/02/15 02:30:45;;;;;;;27.60;9.90;;;11.00;99.90;;;;;;4934013;29;20059;-89
2024/02/15 02:33:22;;;;;;;32.72;9.07;;;11.00;99.90;;;;;;4940571;29;20813;-89
2024/02/15 02:35:48;;;;;;;26.23;9.98;;;11.10;99.90;;;;;;4943382;29;20063;-90
2024/02/15 02:38:15;;;;;;;27.08;8.98;;;11.00;99.90;;;;;;4950043;29;20082;-89
2024/02/15 02:40:42;;;;;;;19.98;8.35;;;11.00;99.90;;;;;;4936484;29;20040;-89
2024/02/15 02:43:09;;;;;;;34.03;8.80;;;11.10;99.90;;;;;;4939322;29;20035;-90
2024/02/15 02:45:36;;;;;;;18.25;7.22;;;11.00;99.90;;;;;;4940385;29;20040;-90
2024/02/15 02:48:03;;;;;;;23.30;7.45;;;11.10;99.90;;;;;;4939555;29;20058;-90
2024/02/15 02:50:29;;;;;;;22.67;7.95;;;11.00;99.90;;;;;;4936966;29;20044;-90
2024/02/15 02:52:56;;;;;;;22.23;7.90;;;11.00;99.90;;;;;;4925372;29;20039;-89
2024/02/15 02:55:23;;;;;;;20.63;6.97;;;11.10;99.90;;;;;;4955307;29;20142;-89
2024/02/15 02:57:49;;;;;;;18.00;7.22;;;11.00;99.90;;;;;;4954497;29;20404;-90
2024/02/15 03:00:17;;;;;;;22.48;7.25;;;11.00;99.90;;;;;;4939780;29;20544;-90
2024/02/15 03:02:44;;;;;;;21.85;8.05;;;11.00;99.90;;;;;;4939624;29;20113;-89
2024/02/15 03:05:14;;;;;;;26.48;7.18;;;11.10;99.90;;;;;;4939633;29;20568;-90
2024/02/15 03:07:41;;;;;;;18.08;6.95;;;11.10;99.90;;;;;;4937161;29;20090;-89
2024/02/15 03:10:13;;;;;;;24.27;7.95;;;11.00;99.90;;;;;;4939788;29;20070;-89
2024/02/15 03:12:40;;;;;;;31.73;8.10;;;11.00;99.90;;;;;;4939809;29;20040;-89
2024/02/15 03:15:11;;;;;;;24.02;7.70;;;11.00;99.90;;;;;;4939436;29;20046;-89
2024/02/15 03:17:40;;;;;;;23.35;8.13;;;11.00;99.90;;;;;;4939464;29;20050;-90
2024/02/15 03:20:21;;;;;;;25.60;8.15;;;11.00;99.90;;;;;;4939739;29;20034;-89
2024/02/15 03:22:55;;;;;;;23.15;8.15;;;11.00;99.90;;;;;;4938176;29;20461;-89
2024/02/15 03:25:25;;;;;;;24.20;8.23;;;11.00;99.90;;;;;;4929416;29;20483;-90
2024/02/15 03:27:53;;;;;;;20.95;8.73;;;11.10;99.90;;;;;;4939301;29;20120;-88
2024/02/15 03:30:20;;;;;;;26.05;8.45;;;11.10;99.90;;;;;;4935494;29;20056;-90
2024/02/15 03:32:48;;;;;;;19.70;8.10;;;11.10;99.90;;;;;;4938897;29;20122;-89
2024/02/15 03:35:15;;;;;;;27.67;8.90;;;11.00;99.90;;;;;;4939246;29;20050;-89
2024/02/15 03:37:42;;;;;;;22.08;7.95;;;11.10;99.90;;;;;;4938978;29;20539;-90
2024/02/15 03:40:09;;;;;;;29.10;7.57;;;11.40;99.90;;;;;;4939515;29;20115;-89
2024/02/15 03:42:39;;;;;;;19.73;8.23;;;11.10;99.90;;;;;;4948778;29;20047;-90
2024/02/15 03:45:06;;;;;;;24.55;8.13;;;11.10;99.90;;;;;;4931720;29;20044;-89
2024/02/15 03:47:35;;;;;;;22.67;8.70;;;11.00;99.90;;;;;;4954582;29;20047;-90
2024/02/15 03:50:08;;;;;;;30.13;9.00;;;11.10;99.90;;;;;;4938682;29;20039;-90
2024/02/15 03:52:34;;;;;;;27.45;8.50;;;11.00;99.90;;;;;;4938061;29;20160;-89
2024/02/15 03:55:02;;;;;;;24.20;7.90;;;11.00;99.90;;;;;;4938550;29;20130;-89
2024/02/15 03:57:29;;;;;;;40.67;9.30;;;11.00;99.90;;;;;;4935010;29;20043;-89
2024/02/15 03:59:58;;;;;;;35.97;10.30;;;11.10;99.90;;;;;;4954249;29;20046;-90
2024/02/15 04:02:30;;;;;;;25.92;8.30;;;11.00;99.90;;;;;;4938882;29;20037;-89
2024/02/15 04:04:57;;;;;;;26.02;7.53;;;11.10;99.90;;;;;;4938850;29;20039;-89
2024/02/15 04:07:26;;;;;;;28.42;7.60;;;11.00;99.90;;;;;;4954128;29;20524;-89
2024/02/15 04:09:54;;;;;;;25.80;7.60;;;11.10;99.90;;;;;;4938245;29;20043;-90
2024/02/15 04:12:21;;;;;;;26.65;7.70;;;11.00;99.90;;;;;;4946335;29;20044;-90
2024/02/15 04:14:48;;;;;;;29.08;8.05;;;11.10;99.90;;;;;;4935881;29;20039;-89
2024/02/15 04:17:16;;;;;;;30.95;7.75;;;11.10;99.90;;;;;;4937727;29;20058;-89
2024/02/15 04:19:46;;;;;;;31.45;8.43;;;11.10;99.90;;;;;;4938094;29;20039;-89
2024/02/15 04:22:16;;;;;;;26.48;8.23;;;11.10;99.90;;;;;;4938426;29;20047;-90
2024/02/15 04:24:45;;;;;;;30.23;7.50;;;11.20;99.90;;;;;;4937538;29;20568;-90
2024/02/15 04:27:13;;;;;;;26.50;7.07;;;11.10;99.90;;;;;;4938410;29;20047;-89
2024/02/15 04:29:41;;;;;;;29.85;7.30;;;11.10;99.90;;;;;;4926627;29;20059;-89
2024/02/15 04:32:11;;;;;;;28.08;8.00;;;11.10;99.90;;;;;;4938316;29;20063;-90
2024/02/15 04:34:38;;;;;;;30.88;7.63;;;11.10;99.90;;;;;;4920836;29;20036;-89
2024/02/15 04:37:06;;;;;;;29.63;8.57;;;11.10;99.90;;;;;;4937175;29;20094;-89
2024/02/15 04:39:33;;;;;;;40.75;9.38;;;11.10;99.90;;;;;;4926295;29;20171;-89
2024/02/15 04:42:00;;;;;;;24.80;8.90;;;11.10;99.90;;;;;;4938159;29;20095;-90
2024/02/15 04:44:27;;;;;;;30.17;8.63;;;11.10;99.90;;;;;;4937868;29;20119;-89
2024/02/15 04:46:54;;;;;;;30.67;9.45;;;11.20;99.90;;;;;;4930340;29;20050;-90
2024/02/15 04:49:22;;;;;;;27.55;9.52;;;11.40;99.90;;;;;;4937935;29;20711;-89
2024/02/15 04:51:49;;;;;;;28.65;9.98;;;11.10;99.90;;;;;;4930449;29;20044;-89
2024/02/15 04:54:18;;;;;;;30.02;11.02;;;11.10;99.90;;;;;;4933485;29;20059;-89
2024/02/15 04:56:45;;;;;;;23.42;10.30;;;11.20;99.90;;;;;;4930079;29;20067;-90
2024/02/15 04:59:15;;;;;;;30.77;11.85;;;11.40;99.90;;;;;;4950514;29;20044;-89
2024/02/15 05:01:45;;;;;;;26.50;12.13;;;11.10;99.90;;;;;;4931036;29;20047;-90
2024/02/15 05:04:13;;;;;;;30.10;11.35;;;11.30;99.90;;;;;;4934303;29;20098;-89
2024/02/15 05:06:40;;;;;;;34.92;12.77;;;11.30;99.90;;;;;;4937506;29;20098;-89
2024/02/15 05:09:12;;;;;;;30.08;11.63;;;11.30;99.90;;;;;;4937957;29;20481;-89
2024/02/15 05:11:47;;;;;;;29.65;12.93;;;11.10;99.90;;;;;;4937604;29;20044;-89
2024/02/15 05:14:20;;;;;;;27.25;12.50;;;11.20;99.90;;;;;;4926581;29;20131;-89
2024/02/15 05:16:50;;;;;;;39.55;12.77;;;11.10;99.90;;;;;;4938268;29;20413;-89
2024/02/15 05:19:17;;;;;;;24.83;11.90;;;11.20;99.90;;;;;;4953451;29;20410;-89
2024/02/15 05:21:47;;;;;;;33.22;13.68;;;11.10;99.90;;;;;;4937392;29;20039;-89
2024/02/15 05:24:15;;;;;;;25.38;12.98;;;11.20;99.90;;;;;;4953383;29;20035;-89
2024/02/15 05:26:48;;;;;;;30.27;14.27;;;11.20;99.90;;;;;;4919302;29;20044;-89
2024/02/15 05:29:15;;;;;;;35.60;14.80;;;11.20;99.90;;;;;;4943062;29;20070;-89
2024/02/15 05:31:41;;;;;;;33.45;14.40;;;11.20;99.90;;;;;;4941435;29;20051;-89
2024/02/15 05:34:11;;;;;;;34.78;15.00;;;11.20;99.90;;;;;;4941060;29;20040;-89
2024/02/15 05:36:38;;;;;;;36.97;14.95;;;11.70;99.90;;;;;;4941488;29;20079;-89
2024/02/15 05:39:05;;;;;;;36.85;15.38;;;11.30;99.90;;;;;;4947134;29;20970;-89
2024/02/15 05:41:34;;;;;;;30.92;13.70;;;11.30;99.90;;;;;;4957548;29;20095;-90
2024/02/15 05:44:01;;;;;;;32.53;14.70;;;11.30;99.90;;;;;;4940994;29;20075;-89
2024/02/15 05:46:28;;;;;;;33.95;13.80;;;11.20;99.90;;;;;;4941442;29;20580;-89
2024/02/15 05:48:55;;;;;;;38.97;15.13;;;11.20;99.90;;;;;;4943997;29;20100;-89
2024/02/15 05:51:23;;;;;;;41.05;15.98;;;11.20;99.90;;;;;;4925117;29;20467;-89
2024/02/15 05:53:49;;;;;;;33.55;14.35;;;11.20;99.90;;;;;;4940923;29;20520;-89
2024/02/15 05:56:16;;;;;;;29.85;13.73;;;11.50;99.90;;;;;;4933431;29;20047;-90
2024/02/15 05:58:43;;;;;;;28.45;14.75;;;11.20;99.90;;;;;;4955152;29;20048;-90
2024/02/15 06:01:12;;;;;;;33.50;15.00;;;11.20;99.90;;;;;;4940656;29;20043;-89
2024/02/15 06:03:40;;;;;;;34.63;16.15;;;11.20;99.90;;;;;;4940810;29;20134;-89
2024/02/15 06:06:07;;;;;;;35.35;15.90;;;11.20;99.90;;;;;;4941133;29;20071;-89
2024/02/15 06:08:34;;;;;;;27.95;14.50;;;11.30;99.90;;;;;;4941209;29;20535;-89
2024/02/15 06:11:01;;;;;;;34.08;16.50;;;11.30;99.90;;;;;;4933940;29;20441;-90
2024/02/15 06:13:28;;;;;;;34.40;15.55;;;11.40;99.90;;;;;;4941015;29;20047;-89
2024/02/15 06:15:55;;;;;;;38.65;15.38;;;11.60;99.90;;;;;;4940760;29;20054;-89
2024/02/15 06:18:24;;;;;;;29.35;16.08;;;11.30;99.90;;;;;;4940694;29;20054;-90
2024/02/15 06:20:51;;;;;;;32.92;15.35;;;11.30;99.90;;;;;;4929593;29;20040;-90
2024/02/15 06:23:18;;;;;;;34.78;15.35;;;11.20;99.90;;;;;;4939149;29;20043;-89
2024/02/15 06:25:49;;;;;;;37.65;15.45;;;11.30;99.90;;;;;;4929107;29;20048;-90
2024/02/15 06:39:38;;;;;;;30.50;16.33;;;11.30;99.90;;;;;;4940298;29;20134;-88
2024/02/15 06:39:41;;;;;;;;;;;11.30;99.90;;;;;;4948304;29;20154;-90
2024/02/15 06:42:16;;;;;;;31.17;15.43;;;11.40;99.90;;;;;;4931044;29;19925;-89
2024/02/15 06:44:47;;;;;;;36.40;16.50;;;11.30;99.90;;;;;;4935192;29;20051;-89
2024/02/15 06:47:17;;;;;;;32.13;16.33;;;11.40;99.90;;;;;;4933400;29;20047;-90
2024/02/15 06:49:45;;;;;;;34.53;16.95;;;11.30;99.90;;;;;;4959540;29;20046;-89
2024/02/15 06:52:13;;;;;;;32.25;16.95;;;11.30;99.90;;;;;;4939821;29;20046;-89
2024/02/15 06:54:40;;;;;;;35.90;17.30;;;11.40;99.90;;;;;;4939911;29;20055;-88
2024/02/15 06:57:07;;;;;;;36.42;18.05;;;11.40;99.90;;;;;;4939840;29;20040;-90
2024/02/15 06:59:34;;;;;;;38.17;17.73;;;11.30;99.90;;;;;;4939673;29;20090;-89
2024/02/15 07:02:04;;;;;;;33.75;16.65;;;12.00;99.90;;;;;;4939408;29;20082;-88
2024/02/15 07:04:32;;;;;;;32.25;18.10;;;11.30;99.90;;;;;;4952046;29;20110;-89
2024/02/15 07:06:59;;;;;;;37.90;17.70;;;11.40;99.90;;;;;;4933309;29;20066;-89
2024/02/15 07:09:27;;;;;;;35.45;18.10;;;11.30;99.90;;;;;;4936331;29;20048;-90
2024/02/15 07:11:54;;;;;;;35.35;17.40;;;11.40;99.90;;;;;;4939219;29;20711;-89
2024/02/15 07:14:20;;;;;;;34.50;18.20;;;11.40;99.90;;;;;;4938991;29;20173;-90
2024/02/15 07:16:49;;;;;;;35.85;15.95;;;11.40;99.90;;;;;;4955153;29;20036;-89
2024/02/15 07:19:16;;;;;;;36.97;16.90;;;11.40;99.90;;;;;;4939403;29;20863;-89
2024/02/15 07:21:43;;;;;;;33.90;16.85;;;11.60;99.90;;;;;;4939613;29;20043;-89
2024/02/15 07:24:10;;;;;;;35.30;15.95;;;11.40;99.90;;;;;;4938207;29;20035;-89
2024/02/15 07:26:36;;;;;;;32.65;16.52;;;11.50;99.90;;;;;;4938230;29;20040;-89
2024/02/15 07:29:07;;;;;;;36.55;16.77;;;11.40;99.90;;;;;;4940011;29;20420;-90
2024/02/15 07:31:35;;;;;;;32.22;15.43;;;11.40;99.90;;;;;;4939572;29;20055;-90
2024/02/15 07:34:03;;;;;;;33.10;15.85;;;11.40;99.90;;;;;;4939167;29;20043;-89
2024/02/15 07:36:30;;;;;;;27.88;15.40;;;11.40;99.90;;;;;;4939038;29;20043;-87
2024/02/15 07:39:00;;;;;;;29.23;15.52;;;11.50;99.90;;;;;;4938791;29;20501;-89
2024/02/15 07:41:27;;;;;;;35.22;15.23;;;11.40;99.90;;;;;;4938537;29;20118;-89
2024/02/15 07:43:55;;;;;;;35.63;15.75;;;11.40;99.90;;;;;;4939150;29;20068;-89
2024/02/15 07:46:22;;;;;;;33.92;15.05;;;11.50;99.90;;;;;;4938799;29;20079;-89
2024/02/15 07:48:49;;;;;;;33.97;15.50;;;11.50;99.90;;;;;;4938941;29;20044;-89
2024/02/15 07:51:18;;;;;;;32.65;14.77;;;11.40;99.90;;;;;;4938291;29;20050;-89
2024/02/15 07:53:44;;;;;;;29.77;14.57;;;11.40;99.90;;;;;;4927637;29;20043;-90
2024/02/15 07:56:13;;;;;;;25.50;13.80;;;11.50;99.90;;;;;;4937478;29;20497;-89
2024/02/15 07:58:47;;;;;;;29.67;14.30;;;11.40;99.90;;;;;;4938824;29;20072;-89
2024/02/15 08:01:14;;;;;;;32.85;14.65;;;11.50;99.90;;;;;;4930728;29;20081;-89
2024/02/15 08:03:46;;;;;;;30.83;14.05;;;11.50;99.90;;;;;;4938547;29;20048;-89
2024/02/15 08:06:15;;;;;;;28.77;14.52;;;11.50;99.90;;;;;;4951708;29;20104;-89
2024/02/15 08:08:47;;;;;;;31.33;14.00;;;11.50;99.90;;;;;;4935009;29;20047;-86
2024/02/15 08:11:14;;;;;;;28.20;14.13;;;11.50;99.90;;;;;;4937948;29;20090;-86
2024/02/15 08:13:45;;;;;;;29.60;13.20;;;11.50;99.90;;;;;;4951601;29;20409;-94
2024/02/15 08:16:12;;;;;;;26.38;13.55;;;11.50;99.90;;;;;;4938485;29;20039;-90
2024/02/15 08:18:39;;;;;;;32.10;14.55;;;11.60;99.90;;;;;;4954344;29;20066;-90
2024/02/15 08:21:05;;;;;;;24.77;13.57;;;11.50;99.90;;;;;;4935577;29;20106;-90
2024/02/15 08:23:32;;;;;;;27.55;13.98;;;11.90;99.90;;;;;;4938655;29;20061;-90
2024/02/15 08:25:59;;;;;;;30.73;13.07;;;11.60;99.90;;;;;;4938110;29;20047;-91
2024/02/15 08:28:28;;;;;;;28.48;12.95;;;11.50;99.90;;;;;;4938327;29;20050;-91
2024/02/15 08:30:57;;;;;;;28.67;12.50;;;11.50;99.90;;;;;;4926125;29;20091;-91
2024/02/15 08:33:28;;;;;;;25.38;12.88;;;11.60;99.90;;;;;;4918814;29;20091;-91
2024/02/15 08:35:55;;;;;;;31.52;12.93;;;11.60;99.90;;;;;;4931301;29;20501;-91
2024/02/15 08:38:23;;;;;;;28.77;13.27;;;11.70;99.90;;;;;;4921046;29;20129;-90
2024/02/15 08:40:49;;;;;;;24.92;12.88;;;11.80;99.90;;;;;;4923445;29;20040;-92
2024/02/15 08:43:16;;;;;;;28.67;12.90;;;11.50;99.90;;;;;;4921414;29;20059;-91
2024/02/15 08:45:43;;;;;;;32.53;12.43;;;11.50;99.90;;;;;;4916358;29;20045;-89
2024/02/15 08:48:10;;;;;;;22.73;11.15;;;11.60;99.90;;;;;;4911465;29;20043;-92
2024/02/15 08:50:39;;;;;;;30.33;12.45;;;11.50;99.90;;;;;;4919322;29;20040;-91
2024/02/15 08:53:08;;;;;;;33.97;12.52;;;11.90;99.90;;;;;;4918828;29;20040;-91
2024/02/15 08:55:35;;;;;;;26.50;11.52;;;11.40;99.90;;;;;;4915958;29;20041;-89
2024/02/15 08:58:03;;;;;;;23.98;11.10;;;11.50;99.90;;;;;;4931629;29;20048;-89
2024/02/15 09:00:30;;;;;;;22.42;12.32;;;11.50;99.90;;;;;;4919410;29;20040;-90
2024/02/15 09:02:57;;;;;;;23.55;11.15;;;11.70;99.90;;;;;;4918624;29;20042;-91
2024/02/15 09:05:24;;;;;;;31.02;12.13;;;11.60;99.90;;;;;;4909578;29;20085;-90
2024/02/15 09:07:51;;;;;;;22.95;11.57;;;11.60;99.90;;;;;;4917393;29;20048;-91
2024/02/15 09:10:18;;;;;;;23.40;11.38;;;11.60;99.90;;;;;;4918937;29;20549;-90
2024/02/15 09:12:48;;;;;;;19.05;10.52;;;11.60;99.90;;;;;;4934362;29;20051;-89
2024/02/15 09:15:16;;;;;;;24.73;10.70;;;11.60;99.90;;;;;;4911367;29;20044;-88
2024/02/15 09:17:45;;;;;;;24.35;10.57;;;11.70;99.90;;;;;;4912981;29;20431;-87
2024/02/15 09:20:18;;;;;;;24.58;10.57;;;11.70;99.90;;;;;;4900158;29;20040;-89
2024/02/15 09:22:52;;;;;;;21.02;10.52;;;12.10;99.90;;;;;;4905398;29;20806;-90
2024/02/15 09:25:19;;;;;;;22.00;10.77;;;11.60;99.90;;;;;;4899476;29;20047;-85
2024/02/15 09:27:46;;;;;;;27.52;11.18;;;11.60;99.90;;;;;;4916954;29;20047;-87
2024/02/15 09:30:13;;;;;;;21.15;11.38;;;11.60;99.90;;;;;;4927059;29;20064;-90
2024/02/15 09:32:39;;;;;;;22.77;10.25;;;11.60;99.90;;;;;;4918644;29;20044;-90
2024/02/15 09:35:08;;;;;;;21.58;10.25;;;11.60;99.90;;;;;;4917983;29;20040;-86
2024/02/15 09:37:43;;;;;;;21.35;11.35;;;11.70;99.90;;;;;;4917691;29;20040;-86
2024/02/15 09:40:12;;;;;;;26.80;11.23;;;11.70;99.90;;;;;;4932788;29;20111;-86
2024/02/15 09:42:41;;;;;;;22.33;10.77;;;11.70;99.90;;;;;;4919685;29;20036;-85
2024/02/15 09:45:15;;;;;;;22.98;11.40;;;11.80;99.90;;;;;;4937328;29;20079;-86
2024/02/15 09:47:43;;;;;;;22.00;10.90;;;11.70;99.90;;;;;;4918902;29;20040;-86
2024/02/15 09:50:14;;;;;;;21.33;10.45;;;11.70;99.90;;;;;;4924580;29;20041;-86
2024/02/15 09:52:45;;;;;;;23.15;10.70;;;11.80;99.90;;;;;;4909125;29;20038;-85
2024/02/15 09:55:13;;;;;;;18.45;10.20;;;11.70;99.90;;;;;;4911529;29;20083;-86
2024/02/15 09:57:42;;;;;;;18.88;10.60;;;11.80;99.90;;;;;;4909081;29;20119;-85
2024/02/15 10:00:13;;;;;;;21.33;11.32;;;11.80;99.90;;;;;;4929663;29;20059;-85
2024/02/15 10:02:41;;;;;;;23.50;10.95;;;11.80;99.90;;;;;;4910162;29;20036;-85
2024/02/15 10:05:11;;;;;;;19.90;11.75;;;11.80;99.90;;;;;;4917318;29;20060;-85
2024/02/15 10:07:45;;;;;;;20.17;11.35;;;11.80;99.90;;;;;;4917664;29;20422;-85
2024/02/15 10:10:19;;;;;;;20.45;10.15;;;11.90;99.90;;;;;;4906671;29;20040;-85
2024/02/15 10:12:56;;;;;;;24.92;10.77;;;11.90;99.90;;;;;;4930876;29;20048;-85
2024/02/15 10:15:31;;;;;;;25.40;10.63;;;11.90;99.90;;;;;;4925637;29;20044;-85
2024/02/15 10:17:58;;;;;;;26.60;10.05;;;12.00;99.90;;;;;;4935245;29;20096;-85
2024/02/15 10:20:25;;;;;;;19.85;10.85;;;12.00;99.90;;;;;;4917076;29;20043;-85
2024/02/15 10:22:58;;;;;;;22.02;10.35;;;12.00;99.90;;;;;;4923953;29;20493;-85
2024/02/15 10:25:27;;;;;;;20.10;9.82;;;12.10;99.90;;;;;;4930123;29;20065;-85
2024/02/15 10:28:02;;;;;;;19.10;9.63;;;12.10;99.90;;;;;;4920640;29;20497;-85
2024/02/15 10:30:33;;;;;;;18.67;9.63;;;12.10;99.90;;;;;;4933348;29;20056;-85
2024/02/15 10:33:01;;;;;;;17.08;9.45;;;12.20;99.90;;;;;;4955054;29;20106;-85
2024/02/15 10:35:28;;;;;;;19.10;9.23;;;12.10;99.90;;;;;;4939261;29;20036;-85
2024/02/15 10:38:04;;;;;;;17.20;9.65;;;12.10;99.90;;;;;;4943359;29;20036;-85
2024/02/15 10:40:31;;;;;;;17.25;8.77;;;12.10;99.90;;;;;;4934530;29;20043;-85
2024/02/15 10:42:59;;;;;;;17.35;8.70;;;12.20;99.90;;;;;;4939459;29;20036;-85
2024/02/15 10:45:26;;;;;;;17.65;9.23;;;12.20;99.90;;;;;;4938968;29;20039;-85
2024/02/15 10:47:53;;;;;;;14.20;8.05;;;12.30;99.90;;;;;;4939570;29;20059;-85
2024/02/15 10:50:20;;;;;;;12.63;7.60;;;12.30;99.90;;;;;;4927970;29;20131;-85
2024/02/15 10:52:53;;;;;;;19.08;8.32;;;12.30;99.90;;;;;;4937835;29;20497;-85
2024/02/15 10:55:38;;;;;;;18.92;8.32;;;12.40;99.90;;;;;;4938913;29;20493;-85
2024/02/15 10:58:06;;;;;;;19.80;11.57;;;12.30;99.90;;;;;;4940796;29;20036;-85
2024/02/15 11:00:37;;;;;;;15.35;7.97;;;12.50;99.90;;;;;;4939262;29;20489;-85
2024/02/15 11:03:07;;;;;;;13.60;7.78;;;12.50;99.90;;;;;;4939363;29;20135;-85
2024/02/15 11:05:37;;;;;;;23.38;11.95;;;12.50;99.90;;;;;;4939111;29;20540;-85
2024/02/15 11:08:06;;;;;;;14.15;8.23;;;12.70;99.90;;;;;;4939050;29;20079;-85
2024/02/15 11:10:35;;;;;;;13.30;8.45;;;12.60;99.90;;;;;;4938657;29;20083;-85
2024/02/15 11:13:02;;;;;;;19.35;9.45;;;12.80;99.90;;;;;;4933932;29;20040;-85
2024/02/15 11:15:46;;;;;;;14.70;7.15;;;12.70;99.90;;;;;;4950762;29;20540;-85
2024/02/15 11:18:33;;;;;;;11.32;7.10;;;12.80;99.90;;;;;;4955766;29;20040;-85
2024/02/15 11:21:00;;;;;;;12.38;6.07;;;12.70;99.90;;;;;;4930993;29;20044;-85
2024/02/15 11:23:27;;;;;;;11.57;6.18;;;12.80;99.90;;;;;;4934709;29;20063;-85
2024/02/15 11:25:56;;;;;;;12.43;6.30;;;12.60;99.90;;;;;;4937931;29;20416;-85
2024/02/15 11:28:22;;;;;;;9.45;6.40;;;12.60;99.90;;;;;;4938761;29;20040;-85
2024/02/15 11:30:49;;;;;;;9.45;5.60;;;12.60;99.90;;;;;;4937106;29;20090;-85
2024/02/15 11:33:30;;;;;;;10.90;5.75;;;12.60;99.90;;;;;;4951046;29;20055;-85
2024/02/15 11:36:13;;;;;;;8.68;5.43;;;12.50;99.90;;;;;;4919255;29;20048;-85
2024/02/15 11:38:41;;;;;;;8.20;4.88;;;12.50;99.90;;;;;;4932380;29;20123;-85
2024/02/15 11:41:10;;;;;;;8.55;5.18;;;12.50;99.90;;;;;;4952990;29;20091;-85
2024/02/15 11:43:45;;;;;;;9.02;5.18;;;12.60;99.90;;;;;;4951040;29;20422;-85
2024/02/15 11:46:19;;;;;;;6.85;4.88;;;12.60;99.90;;;;;;4931583;29;20548;-85
2024/02/15 11:48:49;;;;;;;8.70;5.07;;;12.50;99.90;;;;;;4950747;29;20048;-85
2024/02/15 11:51:26;;;;;;;7.80;5.10;;;12.50;99.90;;;;;;4953898;29;20097;-84
2024/02/15 11:54:12;;;;;;;7.78;4.50;;;12.60;99.90;;;;;;4945520;29;20047;-85
2024/02/15 11:56:47;;;;;;;7.50;4.45;;;12.60;99.90;;;;;;4938021;29;20040;-85
2024/02/15 11:59:31;;;;;;;7.28;4.82;;;12.60;99.90;;;;;;4937780;29;20046;-85
2024/02/15 12:18:44;;;;;;;5.30;3.70;;;12.60;99.90;;;;;;4940702;29;20047;-85
2024/02/15 12:21:22;;;;;;;5.82;3.15;;;12.70;99.90;;;;;;4952684;29;20040;-85
2024/02/15 12:23:49;;;;;;;7.00;3.45;;;12.60;99.90;;;;;;4936347;29;20050;-85
2024/02/15 12:26:27;;;;;;;6.63;3.97;;;12.70;99.90;;;;;;4937287;29;20048;-85
2024/02/15 12:28:57;;;;;;;5.47;3.03;;;12.70;99.90;;;;;;4934149;29;20055;-85
2024/02/15 12:31:28;;;;;;;4.10;2.70;;;12.70;99.90;;;;;;4922792;29;20079;-85
2024/02/15 12:34:01;;;;;;;5.22;2.47;;;12.70;99.90;;;;;;4937119;29;20094;-85
2024/02/15 12:36:28;;;;;;;4.28;2.63;;;12.70;99.90;;;;;;4953189;29;20058;-85
2024/02/15 12:39:03;;;;;;;4.30;2.40;;;12.70;99.90;;;;;;4936525;29;20493;-85
2024/02/15 12:41:30;;;;;;;5.13;2.30;;;12.70;99.90;;;;;;4932363;29;20143;-85
2024/02/15 12:43:57;;;;;;;4.03;2.42;;;12.70;99.90;;;;;;4953228;29;20087;-85
2024/02/15 12:46:26;;;;;;;4.85;2.55;;;12.80;99.90;;;;;;4937058;29;20043;-85
2024/02/15 12:49:15;;;;;;;4.57;2.42;;;12.70;99.90;;;;;;4936557;29;20552;-85
2024/02/15 12:51:53;;;;;;;3.90;2.30;;;12.70;99.90;;;;;;4947008;29;20074;-85
2024/02/15 12:54:21;;;;;;;3.60;2.25;;;12.80;99.90;;;;;;4936871;29;20050;-85
2024/02/15 12:56:53;;;;;;;4.82;2.15;;;12.80;99.90;;;;;;4925768;29;20454;-85
2024/02/15 12:59:20;;;;;;;5.75;3.10;;;12.80;99.90;;;;;;4946067;29;20039;-85
2024/02/15 13:01:47;;;;;;;7.35;4.90;;;12.70;99.90;;;;;;4936242;29;20039;-85
2024/02/15 13:04:25;;;;;;;5.03;3.10;;;12.70;99.90;;;;;;4924662;29;20123;-85
2024/02/15 13:06:51;;;;;;;5.45;2.47;;;12.80;99.90;;;;;;4932781;29;20047;-85